sensor_id;sensor_type;location;lat;lon;timestamp;P1;durP1;ratioP1;P2;durP2;ratioP2
63959;SDS011;50136;51.374;0.096;2023-01-04T00:08:21;16.88;;;3.45;;
63959;SDS011;50136;51.374;0.096;2023-01-04T00:18:23;18.00;;;4.00;;
63959;SDS011;50136;51.374;0.096;2023-01-04T00:28:27;20.85;;;4.18;;
63959;SDS011;50136;51.374;0.096;2023-01-04T00:38:29;16.02;;;3.28;;
63959;SDS011;50136;51.374;0.096;2023-01-04T00:48:32;8.95;;;2.40;;
63959;SDS011;50136;51.374;0.096;2023-01-04T00:58:40;16.43;;;2.80;;
63959;SDS011;50136;51.374;0.096;2023-01-04T01:08:43;16.35;;;3.22;;
63959;SDS011;50136;51.374;0.096;2023-01-04T01:18:46;11.05;;;2.58;;
63959;SDS011;50136;51.374;0.096;2023-01-04T01:28:49;16.10;;;3.05;;
63959;SDS011;50136;51.374;0.096;2023-01-04T01:38:52;16.73;;;3.13;;
63959;SDS011;50136;51.374;0.096;2023-01-04T01:48:57;23.80;;;3.83;;
63959;SDS011;50136;51.374;0.096;2023-01-04T01:59:02;15.40;;;3.30;;
63959;SDS011;50136;51.374;0.096;2023-01-04T02:09:06;16.80;;;3.30;;
63959;SDS011;50136;51.374;0.096;2023-01-04T02:19:27;20.17;;;4.30;;
63959;SDS011;50136;51.374;0.096;2023-01-04T02:40:18;16.85;;;4.05;;
63959;SDS011;50136;51.374;0.096;2023-01-04T02:50:27;16.23;;;3.28;;
63959;SDS011;50136;51.374;0.096;2023-01-04T03:00:36;25.92;;;5.82;;
63959;SDS011;50136;51.374;0.096;2023-01-04T03:10:51;20.15;;;5.65;;
63959;SDS011;50136;51.374;0.096;2023-01-04T03:21:01;13.23;;;3.30;;
63959;SDS011;50136;51.374;0.096;2023-01-04T03:31:07;18.23;;;3.13;;
63959;SDS011;50136;51.374;0.096;2023-01-04T03:41:17;14.87;;;3.20;;
63959;SDS011;50136;51.374;0.096;2023-01-04T03:51:26;10.18;;;2.78;;
63959;SDS011;50136;51.374;0.096;2023-01-04T04:01:33;8.38;;;1.92;;
63959;SDS011;50136;51.374;0.096;2023-01-04T04:11:36;5.53;;;1.67;;
63959;SDS011;50136;51.374;0.096;2023-01-04T04:21:40;7.50;;;1.65;;
63959;SDS011;50136;51.374;0.096;2023-01-04T04:31:42;13.07;;;2.20;;
63959;SDS011;50136;51.374;0.096;2023-01-04T04:41:46;7.05;;;1.95;;
63959;SDS011;50136;51.374;0.096;2023-01-04T04:51:48;10.63;;;2.83;;
63959;SDS011;50136;51.374;0.096;2023-01-04T05:01:51;5.32;;;2.38;;
63959;SDS011;50136;51.374;0.096;2023-01-04T05:11:53;8.55;;;1.98;;
63959;SDS011;50136;51.374;0.096;2023-01-04T05:21:57;18.75;;;3.00;;
63959;SDS011;50136;51.374;0.096;2023-01-04T05:31:59;16.17;;;3.30;;
63959;SDS011;50136;51.374;0.096;2023-01-04T05:42:02;24.17;;;3.88;;
63959;SDS011;50136;51.374;0.096;2023-01-04T05:52:04;17.45;;;3.95;;
63959;SDS011;50136;51.374;0.096;2023-01-04T06:02:09;11.95;;;4.40;;
63959;SDS011;50136;51.374;0.096;2023-01-04T06:12:14;15.55;;;2.97;;
63959;SDS011;50136;51.374;0.096;2023-01-04T06:22:18;13.48;;;2.55;;
63959;SDS011;50136;51.374;0.096;2023-01-04T06:32:20;13.05;;;3.00;;
63959;SDS011;50136;51.374;0.096;2023-01-04T06:42:23;9.07;;;2.58;;
63959;SDS011;50136;51.374;0.096;2023-01-04T06:52:25;11.95;;;2.90;;
63959;SDS011;50136;51.374;0.096;2023-01-04T07:02:28;11.88;;;2.60;;
63959;SDS011;50136;51.374;0.096;2023-01-04T07:12:31;7.43;;;2.28;;
63959;SDS011;50136;51.374;0.096;2023-01-04T07:22:35;10.90;;;2.45;;
63959;SDS011;50136;51.374;0.096;2023-01-04T07:32:36;10.90;;;2.30;;
63959;SDS011;50136;51.374;0.096;2023-01-04T07:42:40;8.98;;;2.10;;
63959;SDS011;50136;51.374;0.096;2023-01-04T07:52:42;9.27;;;2.33;;
63959;SDS011;50136;51.374;0.096;2023-01-04T08:02:45;8.70;;;2.22;;
63959;SDS011;50136;51.374;0.096;2023-01-04T08:12:49;12.38;;;4.03;;
63959;SDS011;50136;51.374;0.096;2023-01-04T08:22:53;11.65;;;2.25;;
63959;SDS011;50136;51.374;0.096;2023-01-04T08:32:55;8.43;;;1.92;;
63959;SDS011;50136;51.374;0.096;2023-01-04T08:42:58;8.57;;;2.38;;
63959;SDS011;50136;51.374;0.096;2023-01-04T08:53:00;11.40;;;2.03;;
63959;SDS011;50136;51.374;0.096;2023-01-04T09:03:03;10.30;;;3.05;;
63959;SDS011;50136;51.374;0.096;2023-01-04T09:13:06;14.73;;;4.20;;
63959;SDS011;50136;51.374;0.096;2023-01-04T09:23:09;13.50;;;3.08;;
63959;SDS011;50136;51.374;0.096;2023-01-04T09:33:11;11.75;;;3.03;;
63959;SDS011;50136;51.374;0.096;2023-01-04T09:43:16;16.10;;;2.83;;
63959;SDS011;50136;51.374;0.096;2023-01-04T09:53:22;17.20;;;3.22;;
63959;SDS011;50136;51.374;0.096;2023-01-04T10:03:29;15.27;;;2.95;;
63959;SDS011;50136;51.374;0.096;2023-01-04T10:13:38;9.15;;;3.20;;
63959;SDS011;50136;51.374;0.096;2023-01-04T10:24:00;19.85;;;4.35;;
63959;SDS011;50136;51.374;0.096;2023-01-04T10:34:30;17.98;;;4.18;;
63959;SDS011;50136;51.374;0.096;2023-01-04T10:44:40;17.65;;;4.22;;
63959;SDS011;50136;51.374;0.096;2023-01-04T10:54:50;20.77;;;4.40;;
63959;SDS011;50136;51.374;0.096;2023-01-04T11:04:57;18.10;;;5.57;;
63959;SDS011;50136;51.374;0.096;2023-01-04T11:15:03;15.17;;;4.27;;
63959;SDS011;50136;51.374;0.096;2023-01-04T11:25:08;16.20;;;3.33;;
63959;SDS011;50136;51.374;0.096;2023-01-04T11:35:37;20.90;;;5.57;;
63959;SDS011;50136;51.374;0.096;2023-01-04T11:45:54;17.55;;;3.53;;
63959;SDS011;50136;51.374;0.096;2023-01-04T12:06:29;28.80;;;5.18;;
63959;SDS011;50136;51.374;0.096;2023-01-04T12:16:40;25.17;;;5.85;;
63959;SDS011;50136;51.374;0.096;2023-01-04T12:26:49;16.05;;;4.50;;
63959;SDS011;50136;51.374;0.096;2023-01-04T12:36:54;19.02;;;4.93;;
63959;SDS011;50136;51.374;0.096;2023-01-04T12:47:07;26.20;;;4.75;;
63959;SDS011;50136;51.374;0.096;2023-01-04T12:57:39;19.73;;;4.55;;
63959;SDS011;50136;51.374;0.096;2023-01-04T13:07:44;28.15;;;4.43;;
63959;SDS011;50136;51.374;0.096;2023-01-04T13:17:48;16.85;;;4.22;;
63959;SDS011;50136;51.374;0.096;2023-01-04T13:27:56;24.98;;;5.22;;
63959;SDS011;50136;51.374;0.096;2023-01-04T13:38:03;31.13;;;6.40;;
63959;SDS011;50136;51.374;0.096;2023-01-04T13:48:16;22.27;;;5.38;;
63959;SDS011;50136;51.374;0.096;2023-01-04T13:58:21;30.70;;;5.53;;
63959;SDS011;50136;51.374;0.096;2023-01-04T14:08:28;20.27;;;6.20;;
63959;SDS011;50136;51.374;0.096;2023-01-04T14:18:34;28.27;;;5.72;;
63959;SDS011;50136;51.374;0.096;2023-01-04T14:28:38;39.83;;;7.97;;
63959;SDS011;50136;51.374;0.096;2023-01-04T14:38:54;28.58;;;5.45;;
63959;SDS011;50136;51.374;0.096;2023-01-04T14:49:09;28.85;;;6.63;;
63959;SDS011;50136;51.374;0.096;2023-01-04T14:59:11;34.80;;;5.68;;
63959;SDS011;50136;51.374;0.096;2023-01-04T15:09:15;30.85;;;6.32;;
63959;SDS011;50136;51.374;0.096;2023-01-04T15:19:17;24.63;;;5.43;;
63959;SDS011;50136;51.374;0.096;2023-01-04T15:29:20;27.00;;;5.05;;
63959;SDS011;50136;51.374;0.096;2023-01-04T15:39:22;25.48;;;5.03;;
63959;SDS011;50136;51.374;0.096;2023-01-04T15:49:26;25.05;;;6.65;;
63959;SDS011;50136;51.374;0.096;2023-01-04T15:59:29;23.33;;;5.70;;
63959;SDS011;50136;51.374;0.096;2023-01-04T16:09:33;24.75;;;4.93;;
63959;SDS011;50136;51.374;0.096;2023-01-04T16:19:35;30.27;;;7.90;;
63959;SDS011;50136;51.374;0.096;2023-01-04T16:29:38;26.67;;;4.78;;
63959;SDS011;50136;51.374;0.096;2023-01-04T16:39:40;32.38;;;5.57;;
63959;SDS011;50136;51.374;0.096;2023-01-04T16:50:04;31.45;;;6.80;;
63959;SDS011;50136;51.374;0.096;2023-01-04T17:00:06;23.20;;;5.32;;
63959;SDS011;50136;51.374;0.096;2023-01-04T17:10:11;18.40;;;5.03;;
63959;SDS011;50136;51.374;0.096;2023-01-04T17:20:13;23.95;;;5.07;;
63959;SDS011;50136;51.374;0.096;2023-01-04T17:30:16;26.13;;;4.97;;
63959;SDS011;50136;51.374;0.096;2023-01-04T17:40:18;25.83;;;4.68;;
63959;SDS011;50136;51.374;0.096;2023-01-04T17:50:25;19.92;;;5.90;;
63959;SDS011;50136;51.374;0.096;2023-01-04T18:00:27;27.65;;;5.18;;
63959;SDS011;50136;51.374;0.096;2023-01-04T18:10:30;22.63;;;6.90;;
63959;SDS011;50136;51.374;0.096;2023-01-04T18:20:52;30.33;;;6.45;;
63959;SDS011;50136;51.374;0.096;2023-01-04T18:31:02;24.75;;;5.45;;
63959;SDS011;50136;51.374;0.096;2023-01-04T18:41:15;21.55;;;4.57;;
63959;SDS011;50136;51.374;0.096;2023-01-04T18:51:19;42.92;;;11.45;;
63959;SDS011;50136;51.374;0.096;2023-01-04T19:01:21;30.17;;;6.43;;
63959;SDS011;50136;51.374;0.096;2023-01-04T19:11:25;24.98;;;6.03;;
63959;SDS011;50136;51.374;0.096;2023-01-04T19:21:27;25.88;;;4.85;;
63959;SDS011;50136;51.374;0.096;2023-01-04T19:31:31;29.83;;;5.47;;
63959;SDS011;50136;51.374;0.096;2023-01-04T19:41:33;36.85;;;7.28;;
63959;SDS011;50136;51.374;0.096;2023-01-04T19:51:37;35.80;;;8.10;;
63959;SDS011;50136;51.374;0.096;2023-01-04T20:01:39;34.67;;;7.50;;
63959;SDS011;50136;51.374;0.096;2023-01-04T20:11:42;28.38;;;5.18;;
63959;SDS011;50136;51.374;0.096;2023-01-04T20:21:44;36.95;;;7.90;;
63959;SDS011;50136;51.374;0.096;2023-01-04T20:31:47;32.20;;;6.18;;
63959;SDS011;50136;51.374;0.096;2023-01-04T20:41:49;29.52;;;5.72;;
63959;SDS011;50136;51.374;0.096;2023-01-04T20:51:53;28.13;;;5.85;;
63959;SDS011;50136;51.374;0.096;2023-01-04T21:01:55;21.55;;;4.72;;
63959;SDS011;50136;51.374;0.096;2023-01-04T21:11:58;25.15;;;5.30;;
63959;SDS011;50136;51.374;0.096;2023-01-04T21:22:07;31.83;;;5.27;;
63959;SDS011;50136;51.374;0.096;2023-01-04T21:32:10;24.17;;;5.38;;
63959;SDS011;50136;51.374;0.096;2023-01-04T21:42:12;19.17;;;5.25;;
63959;SDS011;50136;51.374;0.096;2023-01-04T21:52:15;22.40;;;4.40;;
63959;SDS011;50136;51.374;0.096;2023-01-04T22:02:18;24.70;;;4.88;;
63959;SDS011;50136;51.374;0.096;2023-01-04T22:12:21;30.38;;;5.97;;
63959;SDS011;50136;51.374;0.096;2023-01-04T22:22:23;26.40;;;4.90;;
63959;SDS011;50136;51.374;0.096;2023-01-04T22:32:27;17.88;;;4.55;;
63959;SDS011;50136;51.374;0.096;2023-01-04T22:42:29;25.92;;;4.32;;
63959;SDS011;50136;51.374;0.096;2023-01-04T22:52:32;28.17;;;4.78;;
63959;SDS011;50136;51.374;0.096;2023-01-04T23:02:34;20.10;;;4.18;;
63959;SDS011;50136;51.374;0.096;2023-01-04T23:12:38;45.20;;;7.30;;
63959;SDS011;50136;51.374;0.096;2023-01-04T23:22:40;24.15;;;5.57;;
63959;SDS011;50136;51.374;0.096;2023-01-04T23:32:43;25.42;;;4.43;;
63959;SDS011;50136;51.374;0.096;2023-01-04T23:42:45;30.17;;;6.18;;
63959;SDS011;50136;51.374;0.096;2023-01-04T23:52:48;22.92;;;5.43;;
